Time;durP1;ratioP1;P1;durP2;ratioP2;P2;SDS_P1;SDS_P2;PMS_P1;PMS_P2;Temp;Humidity;BMP_temperature;BMP_pressure;BME280_temperature;BME280_humidity;BME280_pressure;Samples;Min_cycle;Max_cycle;Signal;HPM_P1;HPM_P2
2022/01/26 00:08:26;;;;;;;192.52;73.55;;;;;;;;;;4910106;29;20048;-84
2022/01/26 00:11:11;;;;;;;207.95;74.10;;;;;;;;;;4910004;29;20045;-85
2022/01/26 00:13:59;;;;;;;169.50;64.63;;;;;;;;;;4909461;29;20045;-84
2022/01/26 00:16:45;;;;;;;183.32;65.72;;;;;;;;;;4913579;29;20057;-84
2022/01/26 00:19:46;;;;;;;195.00;72.43;;;;;;;;;;4908007;29;20490;-84
2022/01/26 00:22:44;;;;;;;238.00;89.20;;;;;;;;;;4908697;29;20053;-84
2022/01/26 00:26:12;;;;;;;297.05;101.97;;;;;;;;;;4916734;29;20482;-84
2022/01/26 00:29:10;;;;;;;225.75;80.22;;;;;;;;;;4927778;29;20049;-84
2022/01/26 00:41:03;;;;;;;161.13;59.65;;;;;;;;;;4920532;29;20029;-85
2022/01/26 00:43:56;;;;;;;288.35;122.72;;;;;;;;;;4920671;29;20061;-84
2022/01/26 00:46:48;;;;;;;317.63;129.07;;;;;;;;;;4925682;29;20421;-86
2022/01/26 00:49:33;;;;;;;162.10;61.10;;;;;;;;;;4918855;29;20044;-84
2022/01/26 00:52:30;;;;;;;165.23;64.38;;;;;;;;;;4914315;29;20045;-84
2022/01/26 00:55:19;;;;;;;137.93;57.78;;;;;;;;;;4919020;29;20024;-84
2022/01/26 00:58:04;;;;;;;181.55;68.55;;;;;;;;;;4920924;29;20541;-84
2022/01/26 01:00:49;;;;;;;173.30;73.88;;;;;;;;;;4914600;29;20024;-85
2022/01/26 01:03:39;;;;;;;172.15;69.13;;;;;;;;;;4920890;29;20049;-85
2022/01/26 01:06:28;;;;;;;188.20;72.60;;;;;;;;;;4923434;29;20048;-85
2022/01/26 01:09:16;;;;;;;178.30;72.75;;;;;;;;;;4910019;29;20040;-85
2022/01/26 01:12:03;;;;;;;171.68;65.90;;;;;;;;;;4915995;29;20406;-86
2022/01/26 01:14:49;;;;;;;166.18;66.05;;;;;;;;;;4904976;29;20028;-84
2022/01/26 01:17:40;;;;;;;148.27;59.95;;;;;;;;;;4912619;29;20053;-85
2022/01/26 01:24:02;;;;;;;138.70;53.80;;;;;;;;;;4872881;29;20044;-84
2022/01/26 01:27:23;;;;;;;135.65;52.67;;;;;;;;;;4886330;29;20045;-86
2022/01/26 01:33:10;;;;;;;144.63;51.78;;;;;;;;;;4890388;29;20049;-84
2022/01/26 01:35:58;;;;;;;110.13;43.65;;;;;;;;;;4876963;29;20044;-83
2022/01/26 01:38:46;;;;;;;110.53;43.20;;;;;;;;;;4873221;29;20052;-83
2022/01/26 01:41:31;;;;;;;94.30;40.00;;;;;;;;;;4860170;29;20049;-82
2022/01/26 01:44:17;;;;;;;108.60;43.05;;;;;;;;;;4873193;29;20397;-84
2022/01/26 01:47:05;;;;;;;97.15;37.95;;;;;;;;;;4885780;29;20044;-82
2022/01/26 01:49:51;;;;;;;84.43;36.40;;;;;;;;;;4885556;29;20053;-83
2022/01/26 01:52:37;;;;;;;87.22;36.60;;;;;;;;;;4886113;29;20053;-83
2022/01/26 01:55:26;;;;;;;107.25;39.55;;;;;;;;;;4880570;29;20420;-83
2022/01/26 01:58:12;;;;;;;118.20;44.75;;;;;;;;;;4872325;29;20048;-83
2022/01/26 02:00:58;;;;;;;136.88;49.63;;;;;;;;;;4872557;29;20061;-82
2022/01/26 02:03:46;;;;;;;141.40;50.22;;;;;;;;;;4859595;29;20053;-84
2022/01/26 02:06:41;;;;;;;142.82;47.67;;;;;;;;;;4879683;29;20508;-83
2022/01/26 02:09:26;;;;;;;114.82;41.65;;;;;;;;;;4872801;29;20057;-83
2022/01/26 02:12:18;;;;;;;101.93;40.92;;;;;;;;;;4872027;29;20064;-84
2022/01/26 02:15:11;;;;;;;105.32;43.38;;;;;;;;;;4885290;29;20056;-83
2022/01/26 02:55:16;;;;;;;38.90;17.70;;;;;;;;;;4884984;29;20492;-87
2022/01/26 03:01:28;;;;;;;34.15;16.88;;;;;;;;;;4885303;29;20053;-85
2022/01/26 03:04:26;;;;;;;37.15;15.73;;;;;;;;;;4888172;29;20045;-85
2022/01/26 03:10:13;;;;;;;34.53;16.63;;;;;;;;;;4875275;29;20060;-86
2022/01/26 03:13:05;;;;;;;20.40;9.82;;;;;;;;;;4875467;29;20037;-86
2022/01/26 03:16:02;;;;;;;26.15;11.75;;;;;;;;;;4882965;29;20045;-85
2022/01/26 03:19:15;;;;;;;33.75;16.58;;;;;;;;;;4888461;29;20041;-85
2022/01/26 03:36:58;;;;;;;69.35;27.23;;;;;;;;;;4875961;29;20484;-85
2022/01/26 03:39:55;;;;;;;61.45;27.15;;;;;;;;;;4892367;29;20049;-85
2022/01/26 03:42:41;;;;;;;44.20;24.15;;;;;;;;;;4887410;29;20393;-82
2022/01/26 03:45:26;;;;;;;51.67;21.70;;;;;;;;;;4888161;29;20053;-82
2022/01/26 03:48:12;;;;;;;39.92;18.85;;;;;;;;;;4890324;29;20045;-81
2022/01/26 03:51:00;;;;;;;50.90;20.23;;;;;;;;;;4875473;29;20412;-83
2022/01/26 03:53:46;;;;;;;43.92;22.42;;;;;;;;;;4874995;29;20052;-82
2022/01/26 03:56:31;;;;;;;49.08;21.42;;;;;;;;;;4881800;29;20404;-84
2022/01/26 03:59:17;;;;;;;39.70;15.90;;;;;;;;;;4874721;29;20057;-83
2022/01/26 04:02:03;;;;;;;38.70;18.15;;;;;;;;;;4875287;29;20041;-84
2022/01/26 04:04:53;;;;;;;37.80;17.33;;;;;;;;;;4887397;29;20053;-83
2022/01/26 04:07:40;;;;;;;32.25;14.98;;;;;;;;;;4875605;29;20053;-86
2022/01/26 04:11:01;;;;;;;24.25;11.15;;;;;;;;;;4888205;29;20044;-84
2022/01/26 04:13:30;;;;;;;35.40;17.70;;;;;;;;;;4886805;29;20037;-83
2022/01/26 04:16:17;;;;;;;36.13;17.10;;;;;;;;;;4890036;29;20052;-82
2022/01/26 04:19:03;;;;;;;40.97;17.50;;;;;;;;;;4889303;29;20071;-83
2022/01/26 04:24:52;;;;;;;31.30;15.68;;;;;;;;;;4888677;29;20057;-85
2022/01/26 04:27:42;;;;;;;33.25;16.80;;;;;;;;;;4881057;29;20049;-85
2022/01/26 04:30:28;;;;;;;33.05;15.52;;;;;;;;;;4875479;29;20048;-85
2022/01/26 04:33:13;;;;;;;34.28;16.67;;;;;;;;;;4882753;29;20037;-84
2022/01/26 04:35:58;;;;;;;27.00;15.80;;;;;;;;;;4889928;29;20045;-84
2022/01/26 04:38:49;;;;;;;35.58;17.17;;;;;;;;;;4888110;29;20501;-86
2022/01/26 04:44:24;;;;;;;74.45;28.50;;;;;;;;;;4886978;29;20493;-86
2022/01/26 04:47:10;;;;;;;74.72;31.65;;;;;;;;;;4873907;29;20489;-85
2022/01/26 04:49:55;;;;;;;69.80;29.23;;;;;;;;;;4887007;29;20401;-84
2022/01/26 04:52:40;;;;;;;71.45;31.88;;;;;;;;;;4884584;29;20042;-85
2022/01/26 04:55:25;;;;;;;88.20;32.95;;;;;;;;;;4866858;29;20492;-82
2022/01/26 04:58:11;;;;;;;21.80;11.15;;;;;;;;;;4874145;29;20049;-82
2022/01/26 05:00:56;;;;;;;60.08;27.52;;;;;;;;;;4899310;29;20048;-84
2022/01/26 05:03:42;;;;;;;55.47;23.50;;;;;;;;;;4905575;29;20044;-82
2022/01/26 05:06:28;;;;;;;57.92;25.83;;;;;;;;;;4872019;29;20041;-86
2022/01/26 05:09:15;;;;;;;71.35;31.63;;;;;;;;;;4873363;29;20049;-83
2022/01/26 05:12:02;;;;;;;55.42;25.00;;;;;;;;;;4886473;29;20037;-81
2022/01/26 05:14:48;;;;;;;29.30;14.55;;;;;;;;;;4881909;29;20053;-84
2022/01/26 05:17:36;;;;;;;27.40;14.93;;;;;;;;;;4886239;29;20053;-83
2022/01/26 05:20:21;;;;;;;14.55;10.77;;;;;;;;;;4885173;29;20057;-82
2022/01/26 05:23:08;;;;;;;36.60;17.13;;;;;;;;;;4886219;29;20048;-83
2022/01/26 05:25:55;;;;;;;38.42;18.67;;;;;;;;;;4885713;29;20045;-85
2022/01/26 05:28:40;;;;;;;30.90;15.82;;;;;;;;;;4885612;29;20057;-86
2022/01/26 05:31:28;;;;;;;37.22;18.23;;;;;;;;;;4882768;29;20044;-84
2022/01/26 05:34:35;;;;;;;32.63;15.73;;;;;;;;;;4871514;29;20393;-85
2022/01/26 05:37:21;;;;;;;26.33;11.52;;;;;;;;;;4860060;29;20052;-83
2022/01/26 05:40:22;;;;;;;52.65;26.63;;;;;;;;;;4854821;29;20061;-83
2022/01/26 05:43:08;;;;;;;28.23;15.48;;;;;;;;;;4870733;29;20040;-84
2022/01/26 05:45:58;;;;;;;24.42;12.93;;;;;;;;;;4889971;29;20428;-84
2022/01/26 05:48:47;;;;;;;27.02;14.05;;;;;;;;;;4855626;29;20046;-83
2022/01/26 05:51:37;;;;;;;28.73;14.02;;;;;;;;;;4897545;29;20082;-81
2022/01/26 05:54:24;;;;;;;32.28;16.17;;;;;;;;;;4892807;29;20044;-83
2022/01/26 05:57:14;;;;;;;37.33;16.95;;;;;;;;;;4891126;29;20060;-83
2022/01/26 06:00:07;;;;;;;47.83;20.27;;;;;;;;;;4883258;29;20033;-84
2022/01/26 06:03:01;;;;;;;27.02;12.00;;;;;;;;;;4870495;29;20045;-81
2022/01/26 06:05:47;;;;;;;34.08;16.05;;;;;;;;;;4885145;29;20045;-83
2022/01/26 06:08:32;;;;;;;39.85;18.92;;;;;;;;;;4878513;29;20053;-84
2022/01/26 06:11:17;;;;;;;30.98;16.67;;;;;;;;;;4884742;29;20044;-85
2022/01/26 06:14:02;;;;;;;13.75;8.13;;;;;;;;;;4880042;29;20037;-85
2022/01/26 06:16:48;;;;;;;40.67;20.48;;;;;;;;;;4879128;29;20053;-84
2022/01/26 06:19:34;;;;;;;73.20;30.92;;;;;;;;;;4886222;29;20147;-82
2022/01/26 06:22:19;;;;;;;62.70;30.75;;;;;;;;;;4886502;29;20466;-82
2022/01/26 06:25:07;;;;;;;21.42;12.13;;;;;;;;;;4886052;29;20049;-81
2022/01/26 06:27:55;;;;;;;67.15;32.15;;;;;;;;;;4880280;29;20481;-82
2022/01/26 06:30:46;;;;;;;57.25;26.50;;;;;;;;;;4880150;29;20092;-85
2022/01/26 06:33:33;;;;;;;64.68;28.85;;;;;;;;;;4884850;29;20056;-83
2022/01/26 06:36:19;;;;;;;50.65;26.77;;;;;;;;;;4882335;29;20068;-84
2022/01/26 06:39:05;;;;;;;40.22;21.13;;;;;;;;;;4883778;29;20049;-83
2022/01/26 06:41:54;;;;;;;53.13;24.67;;;;;;;;;;4890475;29;20389;-84
2022/01/26 06:44:50;;;;;;;52.90;25.08;;;;;;;;;;4889130;29;20516;-83
2022/01/26 06:48:14;;;;;;;49.85;26.00;;;;;;;;;;4889945;29;20049;-84
2022/01/26 06:50:42;;;;;;;50.33;24.88;;;;;;;;;;4883589;29;20049;-85
2022/01/26 06:53:28;;;;;;;46.53;23.42;;;;;;;;;;4883544;29;20041;-86
2022/01/26 06:56:13;;;;;;;54.78;29.15;;;;;;;;;;4875742;29;20049;-85
2022/01/26 06:59:01;;;;;;;54.67;29.17;;;;;;;;;;4875952;29;20061;-85
2022/01/26 07:01:51;;;;;;;41.10;20.58;;;;;;;;;;4889014;29;20057;-84
2022/01/26 07:04:37;;;;;;;181.43;78.60;;;;;;;;;;4875771;29;20045;-81
2022/01/26 07:07:25;;;;;;;74.40;31.92;;;;;;;;;;4889629;29;20049;-85
2022/01/26 07:10:11;;;;;;;52.75;27.80;;;;;;;;;;4883370;29;20404;-84
2022/01/26 07:12:56;;;;;;;54.03;28.27;;;;;;;;;;4875486;29;20041;-83
2022/01/26 07:21:58;;;;;;;167.48;57.65;;;;;;;;;;4897153;29;20044;-84
2022/01/26 07:24:44;;;;;;;107.35;40.35;;;;;;;;;;4894266;29;20052;-85
2022/01/26 07:27:29;;;;;;;128.40;54.15;;;;;;;;;;4893653;29;20056;-85
2022/01/26 07:30:15;;;;;;;97.32;44.97;;;;;;;;;;4907348;29;20056;-84
2022/01/26 07:33:04;;;;;;;80.80;39.53;;;;;;;;;;4893532;29;20399;-85
2022/01/26 07:35:50;;;;;;;62.78;31.83;;;;;;;;;;4906757;29;20045;-84
2022/01/26 07:38:36;;;;;;;60.75;31.25;;;;;;;;;;4907221;29;20048;-86
2022/01/26 07:41:22;;;;;;;57.45;28.67;;;;;;;;;;4893627;29;20044;-86
2022/01/26 07:44:08;;;;;;;71.32;32.60;;;;;;;;;;4893797;29;20053;-87
2022/01/26 07:46:53;;;;;;;58.28;30.17;;;;;;;;;;4892895;29;20400;-85
2022/01/26 07:49:39;;;;;;;72.03;36.17;;;;;;;;;;4906164;29;20049;-85
2022/01/26 07:52:27;;;;;;;74.00;36.28;;;;;;;;;;4895178;29;20488;-83
2022/01/26 07:55:16;;;;;;;58.22;29.85;;;;;;;;;;4895371;29;20052;-82
2022/01/26 07:58:03;;;;;;;40.67;22.27;;;;;;;;;;4894352;29;20044;-84
2022/01/26 08:00:49;;;;;;;55.70;27.58;;;;;;;;;;4894222;29;20056;-84
2022/01/26 08:03:37;;;;;;;67.18;32.13;;;;;;;;;;4894460;29;20040;-82
2022/01/26 08:06:27;;;;;;;53.35;28.13;;;;;;;;;;4893739;29;20477;-86
2022/01/26 08:09:19;;;;;;;57.65;29.80;;;;;;;;;;4893454;29;20040;-86
2022/01/26 08:12:21;;;;;;;59.80;29.15;;;;;;;;;;4892901;29;20056;-86
2022/01/26 08:16:00;;;;;;;59.95;28.40;;;;;;;;;;4893999;29;20516;-84
2022/01/26 08:18:54;;;;;;;53.20;27.50;;;;;;;;;;4906030;29;20045;-85
2022/01/26 08:21:43;;;;;;;50.47;23.15;;;;;;;;;;4888067;29;20045;-86
2022/01/26 08:48:33;;;;;;;78.38;34.97;;;;;;;;;;5418600;23;20056;-75
2022/01/26 08:51:18;;;;;;;92.18;39.75;;;;;;;;;;4887020;29;20049;-74
2022/01/26 08:54:04;;;;;;;185.10;69.32;;;;;;;;;;4887314;29;20049;-74
2022/01/26 08:56:50;;;;;;;84.28;40.05;;;;;;;;;;4887289;29;20053;-75
2022/01/26 08:59:36;;;;;;;84.97;38.90;;;;;;;;;;4880044;29;20049;-75
2022/01/26 09:02:21;;;;;;;68.60;32.97;;;;;;;;;;4886777;29;20056;-75
2022/01/26 09:05:08;;;;;;;52.78;28.65;;;;;;;;;;4886363;29;20041;-74
2022/01/26 09:07:57;;;;;;;57.88;29.00;;;;;;;;;;4872873;29;20049;-73
2022/01/26 09:10:42;;;;;;;55.20;28.92;;;;;;;;;;4880851;29;20049;-73
2022/01/26 09:13:31;;;;;;;57.83;28.17;;;;;;;;;;4886671;29;20041;-73
2022/01/26 09:16:19;;;;;;;62.40;31.98;;;;;;;;;;4881226;29;20045;-76
2022/01/26 09:19:12;;;;;;;77.53;38.05;;;;;;;;;;4880027;29;20052;-72
2022/01/26 09:22:08;;;;;;;74.57;38.95;;;;;;;;;;4880088;29;20044;-76
2022/01/26 09:24:54;;;;;;;71.65;35.30;;;;;;;;;;4886585;29;20049;-73
2022/01/26 09:27:40;;;;;;;83.15;40.10;;;;;;;;;;4880384;29;20041;-73
2022/01/26 09:30:25;;;;;;;52.00;29.33;;;;;;;;;;4880638;29;20049;-73
2022/01/26 09:33:10;;;;;;;57.75;29.80;;;;;;;;;;4879806;29;20053;-73
2022/01/26 09:35:56;;;;;;;55.03;28.40;;;;;;;;;;4887045;29;20045;-73
2022/01/26 09:38:41;;;;;;;61.83;32.75;;;;;;;;;;4880391;29;20040;-73
2022/01/26 09:41:27;;;;;;;53.45;29.33;;;;;;;;;;4879832;29;20049;-73
2022/01/26 09:44:14;;;;;;;61.63;31.23;;;;;;;;;;4886408;29;20049;-73
2022/01/26 09:46:59;;;;;;;70.10;31.10;;;;;;;;;;4886270;23;20061;-73
2022/01/26 09:49:45;;;;;;;66.80;32.35;;;;;;;;;;4880868;29;20045;-73
2022/01/26 09:52:45;;;;;;;69.70;35.67;;;;;;;;;;4879755;29;20526;-75
2022/01/26 09:55:31;;;;;;;54.08;28.30;;;;;;;;;;4872496;29;20045;-73
2022/01/26 09:58:17;;;;;;;66.10;34.42;;;;;;;;;;4880732;29;20041;-75
2022/01/26 10:01:04;;;;;;;69.65;34.13;;;;;;;;;;4879701;29;20048;-73
2022/01/26 10:03:51;;;;;;;79.97;34.78;;;;;;;;;;4885188;29;20053;-73
2022/01/26 10:06:40;;;;;;;85.43;40.45;;;;;;;;;;4880150;29;20041;-73
2022/01/26 10:09:41;;;;;;;78.22;39.42;;;;;;;;;;4877924;29;20492;-73
2022/01/26 10:15:34;;;;;;;109.15;49.85;;;;;;;;;;4878545;29;20057;-73
2022/01/26 10:18:21;;;;;;;73.25;38.67;;;;;;;;;;4879083;29;20049;-73
2022/01/26 10:21:08;;;;;;;81.30;41.58;;;;;;;;;;4871712;29;20041;-73
2022/01/26 10:23:58;;;;;;;96.57;46.58;;;;;;;;;;4879791;29;20487;-73
2022/01/26 10:26:49;;;;;;;94.22;46.13;;;;;;;;;;4879384;29;20060;-75
2022/01/26 10:29:36;;;;;;;113.60;48.42;;;;;;;;;;4879973;29;20045;-73
2022/01/26 10:32:20;;;;;;;118.57;50.05;;;;;;;;;;4885784;29;20045;-73
2022/01/26 10:35:06;;;;;;;90.68;44.22;;;;;;;;;;4885690;29;20053;-72
2022/01/26 10:37:55;;;;;;;84.60;41.05;;;;;;;;;;4872170;29;20057;-73
2022/01/26 10:40:40;;;;;;;96.43;43.85;;;;;;;;;;4885798;29;20049;-73
2022/01/26 10:43:29;;;;;;;92.82;43.05;;;;;;;;;;4879504;29;20057;-73
2022/01/26 10:46:30;;;;;;;91.93;42.33;;;;;;;;;;4879368;29;20045;-73
2022/01/26 10:52:18;;;;;;;117.78;52.63;;;;;;;;;;4879776;29;20420;-75
2022/01/26 10:55:08;;;;;;;97.78;45.53;;;;;;;;;;4879331;29;20057;-74
2022/01/26 10:57:53;;;;;;;109.40;43.13;;;;;;;;;;4886406;29;20057;-74
2022/01/26 11:00:41;;;;;;;77.57;36.15;;;;;;;;;;4879495;29;20049;-75
2022/01/26 11:03:28;;;;;;;85.82;41.50;;;;;;;;;;4886046;29;20049;-74
2022/01/26 11:06:18;;;;;;;80.38;39.33;;;;;;;;;;4879851;29;20045;-75
2022/01/26 11:09:11;;;;;;;98.20;46.03;;;;;;;;;;4885778;29;20061;-74
2022/01/26 11:12:01;;;;;;;61.75;28.35;;;;;;;;;;4879535;29;20037;-73
2022/01/26 11:14:51;;;;;;;68.70;34.38;;;;;;;;;;4879336;29;20045;-75
2022/01/26 11:17:42;;;;;;;74.72;38.03;;;;;;;;;;4879686;29;20053;-72
2022/01/26 11:20:32;;;;;;;85.72;38.92;;;;;;;;;;4879383;29;20045;-72
2022/01/26 11:23:20;;;;;;;78.85;40.28;;;;;;;;;;4887505;29;20399;-73
2022/01/26 11:26:06;;;;;;;88.95;41.60;;;;;;;;;;4883123;29;20041;-73
2022/01/26 11:28:51;;;;;;;79.55;41.15;;;;;;;;;;4889001;29;20524;-72
2022/01/26 11:31:38;;;;;;;77.25;38.10;;;;;;;;;;4888937;29;20403;-72
2022/01/26 11:34:26;;;;;;;57.40;29.45;;;;;;;;;;4889021;29;20049;-76
2022/01/26 11:37:17;;;;;;;81.88;37.78;;;;;;;;;;4883230;29;20048;-74
2022/01/26 11:46:17;;;;;;;55.42;26.92;;;;;;;;;;4882362;29;20045;-74
2022/01/26 11:49:10;;;;;;;69.40;35.47;;;;;;;;;;4888568;29;20083;-74
2022/01/26 11:51:57;;;;;;;73.47;38.00;;;;;;;;;;4882387;29;20049;-74
2022/01/26 11:54:50;;;;;;;99.88;44.08;;;;;;;;;;4882077;29;20053;-74
2022/01/26 11:57:52;;;;;;;86.70;40.13;;;;;;;;;;4888534;29;20040;-75
2022/01/26 12:00:52;;;;;;;76.07;34.75;;;;;;;;;;4882262;29;20057;-72
2022/01/26 12:03:47;;;;;;;87.70;41.45;;;;;;;;;;4888140;29;20491;-73
2022/01/26 12:06:36;;;;;;;100.95;45.65;;;;;;;;;;4888361;29;20476;-73
2022/01/26 12:09:23;;;;;;;124.20;60.35;;;;;;;;;;4859438;29;20045;-73
2022/01/26 12:12:16;;;;;;;105.15;49.40;;;;;;;;;;4880459;29;20052;-73
2022/01/26 12:15:15;;;;;;;110.70;48.30;;;;;;;;;;4886808;29;20041;-73
2022/01/26 12:18:20;;;;;;;92.93;44.08;;;;;;;;;;4888523;29;20515;-74
2022/01/26 12:33:56;;;;;;;92.30;47.72;;;;;;;;;;4881251;29;20041;-73
2022/01/26 12:41:10;;;;;;;86.95;40.33;;;;;;;;;;4881683;29;20494;-73
2022/01/26 12:42:56;;;;;;;107.75;50.65;;;;;;;;;;4883637;29;20503;-74
2022/01/26 12:45:44;;;;;;;122.10;56.22;;;;;;;;;;4881583;29;20049;-74
2022/01/26 12:48:30;;;;;;;102.75;47.58;;;;;;;;;;4887672;29;20045;-74
2022/01/26 12:51:17;;;;;;;121.40;56.47;;;;;;;;;;4881285;29;20471;-74
2022/01/26 12:54:03;;;;;;;140.25;65.88;;;;;;;;;;4880981;29;20049;-74
2022/01/26 12:56:48;;;;;;;130.57;56.70;;;;;;;;;;4881136;29;20044;-72
2022/01/26 12:59:34;;;;;;;145.50;68.13;;;;;;;;;;4881129;29;20053;-72
2022/01/26 13:02:25;;;;;;;139.07;64.13;;;;;;;;;;4881008;29;20049;-73
2022/01/26 13:05:11;;;;;;;140.20;69.53;;;;;;;;;;4879893;29;20411;-73
2022/01/26 13:08:04;;;;;;;133.15;66.63;;;;;;;;;;4886873;29;20391;-73
2022/01/26 13:10:50;;;;;;;142.43;67.90;;;;;;;;;;4881208;29;20049;-73
2022/01/26 13:13:36;;;;;;;138.85;68.45;;;;;;;;;;4880689;29;20045;-73
2022/01/26 13:16:25;;;;;;;130.77;63.03;;;;;;;;;;4880817;29;20037;-74
2022/01/26 13:37:05;;;;;;;147.23;69.95;;;;;;;;;;4886690;29;20049;-73
2022/01/26 14:00:05;;;;;;;134.13;64.07;;;;;;;;;;4880098;29;20052;-73
2022/01/26 14:03:03;;;;;;;142.43;68.97;;;;;;;;;;4871916;29;20045;-74
2022/01/26 14:05:49;;;;;;;144.20;69.22;;;;;;;;;;4879981;29;20052;-74
2022/01/26 14:08:34;;;;;;;126.95;59.13;;;;;;;;;;4886132;29;20410;-75
2022/01/26 14:11:20;;;;;;;155.57;72.80;;;;;;;;;;4879928;29;20491;-75
2022/01/26 14:14:08;;;;;;;151.52;72.07;;;;;;;;;;4879722;29;20049;-74
2022/01/26 14:16:57;;;;;;;128.80;59.53;;;;;;;;;;4879832;29;20048;-77
2022/01/26 14:23:03;;;;;;;131.95;64.90;;;;;;;;;;4880022;29;20045;-78
2022/01/26 14:25:50;;;;;;;146.35;68.10;;;;;;;;;;4885971;29;20053;-78
2022/01/26 14:28:36;;;;;;;156.10;67.70;;;;;;;;;;4886004;29;20426;-77
2022/01/26 14:31:30;;;;;;;174.57;79.43;;;;;;;;;;4885935;29;20053;-75
2022/01/26 14:40:46;;;;;;;166.30;76.93;;;;;;;;;;4879855;29;20044;-75
2022/01/26 15:11:59;;;;;;;145.57;71.28;;;;;;;;;;4883000;29;20041;-79
2022/01/26 15:35:22;;;;;;;163.90;81.53;;;;;;;;;;4887917;29;20052;-73
2022/01/26 15:44:21;;;;;;;218.70;116.20;;;;;;;;;;4882373;29;20057;-74
2022/01/26 15:51:00;;;;;;;194.13;99.88;;;;;;;;;;4888370;29;20057;-74
2022/01/26 16:04:16;;;;;;;201.20;107.32;;;;;;;;;;4882358;29;20053;-73
2022/01/26 16:05:55;;;;;;;224.20;111.15;;;;;;;;;;4874352;29;20053;-74
2022/01/26 16:12:41;;;;;;;223.73;119.88;;;;;;;;;;4888215;29;20044;-72
2022/01/26 16:21:05;;;;;;;271.15;135.93;;;;;;;;;;4888627;29;20044;-82
2022/01/26 17:43:15;;;;;;;152.48;74.35;;;;;;;;;;4872923;29;20049;-82
2022/01/26 17:47:17;;;;;;;138.80;67.15;;;;;;;;;;4880387;29;20049;-83
2022/01/26 17:55:16;;;;;;;165.20;74.32;;;;;;;;;;4888090;29;20064;-81
2022/01/26 18:51:24;;;;;;;113.07;48.78;;;;;;;;;;4879710;29;20053;-82
2022/01/26 18:54:11;;;;;;;91.75;43.35;;;;;;;;;;4885723;29;20049;-82
2022/01/26 18:57:04;;;;;;;117.15;57.85;;;;;;;;;;4879695;29;20392;-81
2022/01/26 18:59:55;;;;;;;84.13;41.22;;;;;;;;;;4879437;29;20041;-81
2022/01/26 19:02:41;;;;;;;76.07;38.42;;;;;;;;;;4885724;29;20052;-81
2022/01/26 19:05:27;;;;;;;69.00;36.15;;;;;;;;;;4871570;29;20053;-81
2022/01/26 19:08:13;;;;;;;76.28;37.50;;;;;;;;;;4879338;29;20045;-81
2022/01/26 19:10:59;;;;;;;92.03;40.70;;;;;;;;;;4879066;29;20136;-82
2022/01/26 19:13:47;;;;;;;72.18;35.45;;;;;;;;;;4886110;29;20049;-82
2022/01/26 19:16:55;;;;;;;79.85;40.00;;;;;;;;;;4871685;29;20045;-82
2022/01/26 19:25:23;;;;;;;82.72;39.88;;;;;;;;;;4879693;29;20049;-81
2022/01/26 19:28:17;;;;;;;;;;;;;;;;;;4879722;29;20049;-81
2022/01/26 19:43:35;;;;;;;80.07;39.63;;;;;;;;;;4879172;29;20415;-82
2022/01/26 19:52:09;;;;;;;88.40;42.95;;;;;;;;;;4882465;29;20423;-82
2022/01/26 19:54:56;;;;;;;111.70;50.33;;;;;;;;;;4881464;29;20041;-83
2022/01/26 19:57:42;;;;;;;92.07;43.67;;;;;;;;;;4882266;29;20049;-82
2022/01/26 20:00:28;;;;;;;100.65;47.72;;;;;;;;;;4882393;29;20045;-83
2022/01/26 20:03:14;;;;;;;101.57;44.65;;;;;;;;;;4882555;29;20471;-83
2022/01/26 20:06:02;;;;;;;90.70;39.20;;;;;;;;;;4873769;29;20045;-83
2022/01/26 20:08:58;;;;;;;94.00;42.47;;;;;;;;;;4882330;29;20044;-83
2022/01/26 20:11:54;;;;;;;92.13;43.97;;;;;;;;;;4882068;29;20487;-82
2022/01/26 20:14:39;;;;;;;73.93;37.22;;;;;;;;;;4881806;29;20045;-81
2022/01/26 20:17:26;;;;;;;90.78;44.05;;;;;;;;;;4881956;29;20045;-82
2022/01/26 20:20:14;;;;;;;87.43;42.78;;;;;;;;;;4881438;29;20045;-82
2022/01/26 20:23:00;;;;;;;80.32;40.80;;;;;;;;;;4881982;29;20053;-82
2022/01/26 20:25:52;;;;;;;71.80;36.58;;;;;;;;;;4881289;29;20057;-82
2022/01/26 20:28:43;;;;;;;64.35;34.50;;;;;;;;;;4881613;29;20507;-85
2022/01/26 20:31:27;;;;;;;75.60;33.88;;;;;;;;;;4887178;29;20061;-85
2022/01/26 20:34:14;;;;;;;92.25;38.55;;;;;;;;;;4881478;29;20483;-84
2022/01/26 20:37:00;;;;;;;81.32;37.30;;;;;;;;;;4881542;29;20049;-84
2022/01/26 20:39:45;;;;;;;94.72;41.47;;;;;;;;;;4881353;29;20107;-84
2022/01/26 20:42:31;;;;;;;96.82;43.80;;;;;;;;;;4881494;29;20053;-84
2022/01/26 20:45:20;;;;;;;91.57;41.67;;;;;;;;;;4881415;29;20056;-84
2022/01/26 20:48:07;;;;;;;93.20;40.33;;;;;;;;;;4886164;29;20048;-83
2022/01/26 20:50:53;;;;;;;82.68;40.97;;;;;;;;;;4881371;29;20391;-82
2022/01/26 20:53:39;;;;;;;112.05;54.25;;;;;;;;;;4880378;29;20048;-83
2022/01/26 20:56:25;;;;;;;167.93;66.78;;;;;;;;;;4880672;29;20053;-82
2022/01/26 20:59:11;;;;;;;217.77;84.53;;;;;;;;;;4881499;29;20041;-82
2022/01/26 21:01:56;;;;;;;170.98;64.70;;;;;;;;;;4888997;23;20057;-81
2022/01/26 21:04:41;;;;;;;160.60;64.38;;;;;;;;;;4881040;29;20049;-82
2022/01/26 21:07:28;;;;;;;130.90;58.30;;;;;;;;;;4880684;29;20490;-81
2022/01/26 21:10:14;;;;;;;145.77;63.60;;;;;;;;;;4880664;29;20060;-80
2022/01/26 21:12:59;;;;;;;142.77;61.10;;;;;;;;;;4881021;29;20057;-80
2022/01/26 21:15:45;;;;;;;165.27;76.15;;;;;;;;;;4888754;29;20411;-80
2022/01/26 21:18:33;;;;;;;158.20;72.40;;;;;;;;;;4884766;29;20049;-79
2022/01/26 21:21:18;;;;;;;153.63;73.65;;;;;;;;;;4884413;29;20045;-81
2022/01/26 21:24:04;;;;;;;134.48;58.67;;;;;;;;;;4885210;29;20052;-80
2022/01/26 21:26:49;;;;;;;134.98;58.60;;;;;;;;;;4890911;29;20045;-80
2022/01/26 21:29:35;;;;;;;136.77;58.05;;;;;;;;;;4884194;29;20049;-82
2022/01/26 21:32:21;;;;;;;111.60;48.47;;;;;;;;;;4891418;29;20049;-82
2022/01/26 21:35:08;;;;;;;109.75;46.85;;;;;;;;;;4882950;29;20053;-82
2022/01/26 21:37:54;;;;;;;103.25;46.28;;;;;;;;;;4886912;29;20083;-82
2022/01/26 21:40:41;;;;;;;96.70;46.13;;;;;;;;;;4882947;29;20057;-82
2022/01/26 21:43:26;;;;;;;98.57;50.42;;;;;;;;;;4882147;29;20487;-83
2022/01/26 21:46:12;;;;;;;109.25;53.33;;;;;;;;;;4885904;29;20041;-83
2022/01/26 21:48:57;;;;;;;124.63;56.67;;;;;;;;;;4890841;29;20049;-85
2022/01/26 21:51:43;;;;;;;115.20;58.08;;;;;;;;;;4878471;29;20045;-83
2022/01/26 21:54:28;;;;;;;119.65;56.92;;;;;;;;;;4881822;29;20053;-82
2022/01/26 21:57:14;;;;;;;138.73;62.03;;;;;;;;;;4887668;29;20057;-83
2022/01/26 21:59:59;;;;;;;123.53;54.55;;;;;;;;;;4878081;29;20049;-79
2022/01/26 22:02:46;;;;;;;177.68;73.68;;;;;;;;;;4879507;29;20052;-81
2022/01/26 22:05:38;;;;;;;139.30;60.55;;;;;;;;;;4891588;23;20483;-80
2022/01/26 22:08:24;;;;;;;129.70;57.45;;;;;;;;;;4880128;29;20086;-80
2022/01/26 22:11:11;;;;;;;121.30;55.90;;;;;;;;;;4880402;29;20406;-81
2022/01/26 22:13:57;;;;;;;130.63;57.47;;;;;;;;;;4879763;29;20045;-80
2022/01/26 22:16:42;;;;;;;130.82;57.95;;;;;;;;;;4879313;29;20049;-81
2022/01/26 22:19:27;;;;;;;134.13;56.45;;;;;;;;;;4880236;29;20061;-81
2022/01/26 22:22:14;;;;;;;127.40;54.53;;;;;;;;;;4880108;29;20049;-79
2022/01/26 22:25:00;;;;;;;117.85;51.83;;;;;;;;;;4881015;29;20414;-80
2022/01/26 22:27:49;;;;;;;111.10;48.97;;;;;;;;;;4878950;29;20487;-80
2022/01/26 22:30:37;;;;;;;102.13;46.70;;;;;;;;;;4886238;29;20057;-80
2022/01/26 22:33:23;;;;;;;106.60;49.58;;;;;;;;;;4884996;29;20574;-79
2022/01/26 22:36:10;;;;;;;120.97;51.75;;;;;;;;;;4879305;29;20184;-81
2022/01/26 22:38:55;;;;;;;106.65;49.08;;;;;;;;;;4880405;29;20057;-81
2022/01/26 22:41:42;;;;;;;108.15;47.63;;;;;;;;;;4886157;29;20048;-81
2022/01/26 22:44:27;;;;;;;104.15;45.85;;;;;;;;;;4885750;29;20053;-80
2022/01/26 22:47:13;;;;;;;91.15;39.92;;;;;;;;;;4886058;29;20044;-80
2022/01/26 22:49:58;;;;;;;94.35;40.58;;;;;;;;;;4879562;29;20045;-81
2022/01/26 22:52:44;;;;;;;97.18;43.60;;;;;;;;;;4880039;29;20045;-81
2022/01/26 22:55:30;;;;;;;90.78;41.72;;;;;;;;;;4879006;29;20096;-81
2022/01/26 22:58:19;;;;;;;133.75;61.40;;;;;;;;;;4886170;29;20057;-81
2022/01/26 23:04:15;;;;;;;74.32;39.13;;;;;;;;;;4885595;29;20053;-81
2022/01/26 23:07:00;;;;;;;82.05;39.88;;;;;;;;;;4880716;29;20053;-81
2022/01/26 23:09:46;;;;;;;88.68;42.08;;;;;;;;;;4885253;29;20045;-81
2022/01/26 23:12:34;;;;;;;98.57;45.20;;;;;;;;;;4879928;29;20049;-81
2022/01/26 23:15:20;;;;;;;106.05;45.15;;;;;;;;;;4879890;29;20410;-81
2022/01/26 23:18:07;;;;;;;103.32;40.75;;;;;;;;;;4879333;29;20057;-81
2022/01/26 23:20:52;;;;;;;75.88;34.95;;;;;;;;;;4883249;29;20049;-81
2022/01/26 23:23:38;;;;;;;71.00;32.22;;;;;;;;;;4884008;29;20399;-82
2022/01/26 23:29:29;;;;;;;38.72;21.30;;;;;;;;;;4882951;29;20048;-81
2022/01/26 23:36:14;;;;;;;34.00;19.65;;;;;;;;;;4866888;29;20045;-81
